createdAt,value
2022-09-22T00:01:25.061Z,60.95
2022-09-22T00:03:55.279Z,61.20
2022-09-22T00:06:31.221Z,61.12
2022-09-22T00:09:03.453Z,61.12
2022-09-22T00:11:36.447Z,61.43
2022-09-22T00:14:22.779Z,61.49
2022-09-22T00:16:52.714Z,61.37
2022-09-22T00:19:22.886Z,61.46
2022-09-22T00:21:49.859Z,61.65
2022-09-22T00:24:18.312Z,61.80
2022-09-22T00:26:45.778Z,61.59
2022-09-22T00:29:13.748Z,61.24
2022-09-22T00:31:42.315Z,61.24
2022-09-22T00:34:14.814Z,60.98
2022-09-22T00:36:42.127Z,61.04
2022-09-22T00:39:09.480Z,61.98
2022-09-22T00:41:40.850Z,61.66
2022-09-22T00:44:36.488Z,61.79
2022-09-22T00:47:03.544Z,62.29
2022-09-22T00:49:55.643Z,62.26
2022-09-22T00:53:03.630Z,62.52
2022-09-22T00:55:37.818Z,62.63
2022-09-22T00:58:09.572Z,62.92
2022-09-22T01:00:36.659Z,63.27
2022-09-22T01:03:08.282Z,62.18
2022-09-22T01:05:37.540Z,62.64
2022-09-22T01:08:05.024Z,62.35
2022-09-22T01:10:32.074Z,62.35
2022-09-22T01:13:07.965Z,62.73
2022-09-22T01:15:46.040Z,62.55
2022-09-22T01:18:27.914Z,63.44
2022-09-22T01:21:27.252Z,62.95
2022-09-22T01:24:17.098Z,62.96
2022-09-22T01:26:49.904Z,63.20
2022-09-22T01:29:32.691Z,64.19
2022-09-22T01:32:50.074Z,63.81
2022-09-22T01:35:28.389Z,63.11
2022-09-22T01:38:21.143Z,63.74
2022-09-22T01:41:15.281Z,63.56
2022-09-22T01:43:57.638Z,63.42
2022-09-22T01:46:34.343Z,63.55
2022-09-22T01:49:07.800Z,63.04
2022-09-22T01:51:47.901Z,63.12
2022-09-22T01:54:24.472Z,63.57
2022-09-22T01:56:58.718Z,63.55
2022-09-22T01:59:30.418Z,63.64
2022-09-22T02:02:07.183Z,63.86
2022-09-22T02:04:51.035Z,63.56
2022-09-22T02:07:33.910Z,63.31
2022-09-22T02:10:05.853Z,63.10
2022-09-22T02:12:32.892Z,63.46
2022-09-22T02:14:59.892Z,63.67
2022-09-22T02:17:29.677Z,63.80
2022-09-22T02:19:59.875Z,63.79
2022-09-22T02:22:27.210Z,63.34
2022-09-22T02:24:54.281Z,63.51
2022-09-22T02:27:28.009Z,63.29
2022-09-22T02:30:00.955Z,63.71
2022-09-22T02:32:29.784Z,63.70
2022-09-22T02:34:57.264Z,63.08
2022-09-22T02:38:05.651Z,62.81
2022-09-22T02:40:55.657Z,62.22
2022-09-22T02:43:40.223Z,61.97
2022-09-22T02:46:32.688Z,61.39
2022-09-22T02:49:04.053Z,61.94
2022-09-22T02:51:31.984Z,61.63
2022-09-22T02:53:58.971Z,61.38
2022-09-22T02:56:25.976Z,61.59
2022-09-22T02:58:57.655Z,61.19
2022-09-22T03:01:25.827Z,61.66
2022-09-22T03:03:52.985Z,62.04
2022-09-22T03:06:19.990Z,62.21
2022-09-22T03:08:46.942Z,61.77
2022-09-22T03:11:13.822Z,61.94
2022-09-22T03:13:40.767Z,62.43
2022-09-22T03:16:07.970Z,62.80
2022-09-22T03:18:35.495Z,62.34
2022-09-22T03:21:02.536Z,62.62
2022-09-22T03:23:29.494Z,63.18
2022-09-22T03:25:56.633Z,63.36
2022-09-22T03:28:23.521Z,63.00
2022-09-22T03:30:50.541Z,63.07
2022-09-22T03:33:17.680Z,62.89
2022-09-22T03:35:44.526Z,62.96
2022-09-22T03:38:11.574Z,62.64
2022-09-22T03:40:38.501Z,61.68
2022-09-22T03:43:05.528Z,62.42
2022-09-22T03:45:32.334Z,62.22
2022-09-22T03:47:59.187Z,62.34
2022-09-22T03:50:26.751Z,62.04
2022-09-22T03:52:53.722Z,61.97
2022-09-22T03:55:20.601Z,62.38
2022-09-22T03:57:47.920Z,62.64
2022-09-22T04:00:15.267Z,62.50
2022-09-22T04:02:42.249Z,62.86
2022-09-22T04:05:10.061Z,62.74
2022-09-22T04:07:37.081Z,61.79
2022-09-22T04:10:04.749Z,61.49
2022-09-22T04:12:31.636Z,61.70
2022-09-22T04:14:58.475Z,61.73
2022-09-22T04:17:25.483Z,61.03
2022-09-22T04:19:52.515Z,61.13
2022-09-22T04:22:19.423Z,61.47
2022-09-22T04:24:46.373Z,61.95
2022-09-22T04:27:19.981Z,61.44
2022-09-22T04:29:48.014Z,61.70
2022-09-22T04:32:15.109Z,61.91
2022-09-22T04:34:43.168Z,61.30
2022-09-22T04:37:11.312Z,61.35
2022-09-22T04:39:38.427Z,61.81
2022-09-22T04:42:05.561Z,61.51
2022-09-22T04:44:35.117Z,61.86
2022-09-22T04:47:03.047Z,61.62
2022-09-22T04:49:29.968Z,62.37
2022-09-22T04:51:57.001Z,62.68
2022-09-22T04:54:23.987Z,62.93
2022-09-22T04:56:50.854Z,63.09
2022-09-22T04:59:17.794Z,63.55
2022-09-22T05:01:44.652Z,63.70
2022-09-22T05:04:11.849Z,63.86
2022-09-22T05:06:39.306Z,64.40
2022-09-22T05:09:06.220Z,64.71
2022-09-22T05:11:33.269Z,65.03
2022-09-22T05:14:00.201Z,64.63
2022-09-22T05:16:27.160Z,64.37
2022-09-22T05:18:54.164Z,64.33
2022-09-22T05:21:21.171Z,64.42
2022-09-22T05:23:48.133Z,64.50
2022-09-22T05:26:15.631Z,65.75
2022-09-22T05:28:42.981Z,67.52
2022-09-22T05:31:09.942Z,65.67
2022-09-22T05:33:37.253Z,64.54
2022-09-22T05:36:04.232Z,65.36
2022-09-22T05:38:31.342Z,64.22
2022-09-22T05:40:58.395Z,64.54
2022-09-22T05:43:25.289Z,65.79
2022-09-22T05:45:52.165Z,65.89
2022-09-22T05:48:19.145Z,66.14
2022-09-22T05:50:46.238Z,66.19
2022-09-22T05:53:15.005Z,66.26
2022-09-22T05:55:41.963Z,66.13
2022-09-22T05:58:13.145Z,66.60
2022-09-22T06:00:41.175Z,66.84
2022-09-22T06:03:08.777Z,67.98
2022-09-22T06:05:38.148Z,67.40
2022-09-22T06:08:06.922Z,65.85
2022-09-22T06:10:35.991Z,67.92
2022-09-22T06:13:08.557Z,68.13
2022-09-22T06:15:36.400Z,68.32
2022-09-22T06:18:07.374Z,68.15
2022-09-22T06:20:38.110Z,68.08
2022-09-22T06:23:05.195Z,67.65
2022-09-22T06:25:32.155Z,67.89
2022-09-22T06:28:07.251Z,67.02
2022-09-22T06:30:38.243Z,66.98
2022-09-22T06:33:05.180Z,67.50
2022-09-22T06:35:38.115Z,66.79
2022-09-22T06:38:09.517Z,61.68
2022-09-22T06:40:36.674Z,62.69
2022-09-22T06:43:12.016Z,63.27
2022-09-22T06:45:40.362Z,63.39
2022-09-22T06:48:10.151Z,63.54
2022-09-22T06:50:38.345Z,63.68
2022-09-22T06:53:11.397Z,63.95
2022-09-22T06:55:41.673Z,61.43
2022-09-22T06:58:09.906Z,64.53
2022-09-22T07:00:37.327Z,64.23
2022-09-22T07:03:22.664Z,63.56
2022-09-22T07:05:58.304Z,63.54
2022-09-22T07:08:25.785Z,60.18
2022-09-22T07:11:08.296Z,60.89
2022-09-22T07:13:40.142Z,62.28
2022-09-22T07:16:12.138Z,59.39
2022-09-22T07:18:40.949Z,58.85
2022-09-22T07:21:11.896Z,61.09
2022-09-22T07:23:41.001Z,58.32
2022-09-22T07:26:12.208Z,59.53
2022-09-22T07:28:39.466Z,58.03
2022-09-22T07:31:09.253Z,58.70
2022-09-22T07:33:41.523Z,59.61
2022-09-22T07:36:13.205Z,60.38
2022-09-22T07:38:41.834Z,60.70
2022-09-22T07:41:14.242Z,59.43
2022-09-22T07:43:42.229Z,60.95
2022-09-22T07:46:09.401Z,61.81
2022-09-22T07:48:37.910Z,62.45
2022-09-22T07:51:12.917Z,63.27
2022-09-22T07:53:41.509Z,61.82
2022-09-22T07:56:15.166Z,61.95
2022-09-22T07:59:10.887Z,62.28
2022-09-22T08:01:42.206Z,62.87
2022-09-22T08:04:16.738Z,63.18
2022-09-22T08:06:45.529Z,61.72
2022-09-22T08:09:13.661Z,60.64
2022-09-22T08:11:48.868Z,61.25
2022-09-22T08:14:17.519Z,60.79
2022-09-22T08:16:46.112Z,62.83
2022-09-22T08:19:14.637Z,62.19
2022-09-22T08:21:49.352Z,62.25
2022-09-22T08:24:22.912Z,58.16
2022-09-22T08:26:52.561Z,61.36
2022-09-22T08:29:20.507Z,60.25
2022-09-22T08:31:49.434Z,58.65
2022-09-22T08:34:17.663Z,59.96
2022-09-22T08:36:46.608Z,60.82
2022-09-22T08:39:14.082Z,57.13
2022-09-22T08:41:49.864Z,59.13
2022-09-22T08:44:24.628Z,61.21
2022-09-22T08:46:53.828Z,59.60
2022-09-22T08:49:46.819Z,57.93
2022-09-22T08:52:19.534Z,55.83
2022-09-22T08:54:46.534Z,55.31
2022-09-22T08:57:42.563Z,52.20
2022-09-22T09:00:19.225Z,54.41
2022-09-22T09:02:58.781Z,55.84
2022-09-22T09:05:40.713Z,58.19
2022-09-22T09:08:36.980Z,53.16
2022-09-22T09:11:42.847Z,55.92
2022-09-22T09:14:39.548Z,56.00
2022-09-22T09:17:25.899Z,54.19
2022-09-22T09:20:02.051Z,56.55
2022-09-22T09:22:43.694Z,55.52
2022-09-22T09:25:35.892Z,54.46
2022-09-22T09:28:13.563Z,52.10
2022-09-22T09:30:45.877Z,50.91
2022-09-22T09:33:23.326Z,51.38
2022-09-22T09:35:53.534Z,55.05
2022-09-22T09:39:00.463Z,56.69
2022-09-22T09:41:32.558Z,51.20
2022-09-22T09:44:01.498Z,48.56
2022-09-22T09:46:49.404Z,50.35
2022-09-22T09:49:17.664Z,53.16
2022-09-22T09:51:47.771Z,53.26
2022-09-22T09:54:17.718Z,51.67
2022-09-22T09:57:11.098Z,54.23
2022-09-22T10:00:01.479Z,52.26
2022-09-22T10:02:49.182Z,53.72
2022-09-22T10:05:15.930Z,51.57
2022-09-22T10:07:46.857Z,52.89
2022-09-22T10:10:28.782Z,53.17
2022-09-22T10:13:20.133Z,53.69
2022-09-22T10:16:01.591Z,54.02
2022-09-22T10:18:40.755Z,52.64
2022-09-22T10:21:23.905Z,50.85
2022-09-22T10:23:53.077Z,49.91
2022-09-22T10:26:27.279Z,51.37
2022-09-22T10:29:12.400Z,47.68
2022-09-22T10:31:41.825Z,50.81
2022-09-22T10:34:36.313Z,51.96
2022-09-22T10:37:10.780Z,47.18
2022-09-22T10:39:52.240Z,46.21
2022-09-22T10:42:37.931Z,48.43
2022-09-22T10:45:13.853Z,45.19
2022-09-22T10:47:57.668Z,46.27
2022-09-22T10:50:24.696Z,50.93
2022-09-22T10:53:29.893Z,51.45
2022-09-22T10:56:09.023Z,50.87
2022-09-22T10:59:19.681Z,49.84
2022-09-22T11:01:49.379Z,49.35
2022-09-22T11:04:31.801Z,48.17
2022-09-22T11:07:51.238Z,46.49
2022-09-22T11:10:54.607Z,47.79
2022-09-22T11:13:38.200Z,46.40
2022-09-22T11:16:49.907Z,46.66
2022-09-22T11:19:44.401Z,48.61
2022-09-22T11:22:31.533Z,49.82
2022-09-22T11:25:23.059Z,50.07
2022-09-22T11:28:04.955Z,51.81
2022-09-22T11:30:51.378Z,48.22
2022-09-22T11:33:27.159Z,47.78
2022-09-22T11:36:28.092Z,47.86
2022-09-22T11:39:01.019Z,48.11
2022-09-22T11:41:35.069Z,44.86
2022-09-22T11:44:20.865Z,45.04
2022-09-22T11:47:13.965Z,46.35
2022-09-22T11:49:52.882Z,47.03
2022-09-22T11:52:28.693Z,44.73
2022-09-22T11:55:11.041Z,44.06
2022-09-22T11:57:42.546Z,42.37
2022-09-22T12:00:19.030Z,42.89
2022-09-22T12:03:02.784Z,42.53
2022-09-22T12:05:39.155Z,42.62
2022-09-22T12:08:11.901Z,44.43
2022-09-22T12:10:42.778Z,44.86
2022-09-22T12:13:23.704Z,44.09
2022-09-22T12:16:13.274Z,45.66
2022-09-22T12:19:21.966Z,44.67
2022-09-22T12:22:05.640Z,45.95
2022-09-22T12:24:33.315Z,43.32
2022-09-22T12:27:18.957Z,40.62
2022-09-22T12:29:46.308Z,41.40
2022-09-22T12:32:27.374Z,43.72
2022-09-22T12:34:58.577Z,40.33
2022-09-22T12:37:29.877Z,40.55
2022-09-22T12:40:04.883Z,42.53
2022-09-22T12:42:39.726Z,41.40
2022-09-22T12:45:15.744Z,42.48
2022-09-22T12:47:49.862Z,41.98
2022-09-22T12:50:35.331Z,39.98
2022-09-22T12:53:24.128Z,41.03
2022-09-22T12:55:53.174Z,40.15
2022-09-22T12:58:23.783Z,40.68
2022-09-22T13:00:56.413Z,39.60
2022-09-22T13:03:26.446Z,40.06
2022-09-22T13:06:03.548Z,39.90
2022-09-22T13:08:30.443Z,39.87
2022-09-22T13:11:08.543Z,40.80
2022-09-22T13:13:43.094Z,36.74
2022-09-22T13:16:16.346Z,38.70
2022-09-22T13:19:02.368Z,37.40
2022-09-22T13:21:31.312Z,38.69
2022-09-22T13:24:05.111Z,39.58
2022-09-22T13:26:38.091Z,39.75
2022-09-22T13:29:12.825Z,38.51
2022-09-22T13:31:43.103Z,37.39
2022-09-22T13:34:22.059Z,35.81
2022-09-22T13:36:50.267Z,38.27
2022-09-22T13:39:21.203Z,37.02
2022-09-22T13:42:14.645Z,37.50
2022-09-22T13:44:45.559Z,37.94
2022-09-22T13:47:17.373Z,37.12
2022-09-22T13:49:49.721Z,37.25
2022-09-22T13:52:21.893Z,35.21
2022-09-22T13:54:54.281Z,36.58
2022-09-22T13:57:28.618Z,34.90
2022-09-22T14:00:00.801Z,36.61
2022-09-22T14:02:31.951Z,34.97
2022-09-22T14:05:08.168Z,36.85
2022-09-22T14:07:55.214Z,37.93
2022-09-22T14:10:28.149Z,39.38
2022-09-22T14:12:56.254Z,37.90
2022-09-22T14:15:35.143Z,37.15
2022-09-22T14:18:08.857Z,37.03
2022-09-22T14:20:40.689Z,37.99
2022-09-22T14:23:16.587Z,37.12
2022-09-22T14:25:44.022Z,37.92
2022-09-22T14:28:21.131Z,38.04
2022-09-22T14:30:49.607Z,37.92
2022-09-22T14:33:25.634Z,36.52
2022-09-22T14:36:01.315Z,36.69
2022-09-22T14:38:30.344Z,34.84
2022-09-22T14:41:03.007Z,34.81
2022-09-22T14:43:42.327Z,36.75
2022-09-22T14:46:28.657Z,35.68
2022-09-22T14:48:55.675Z,36.50
2022-09-22T14:51:25.894Z,36.47
2022-09-22T14:53:57.691Z,36.83
2022-09-22T14:56:28.430Z,36.17
2022-09-22T14:58:58.352Z,37.75
2022-09-22T15:01:48.159Z,36.74
2022-09-22T15:04:18.213Z,37.02
2022-09-22T15:06:48.609Z,37.58
2022-09-22T15:09:38.798Z,39.45
2022-09-22T15:12:06.427Z,39.03
2022-09-22T15:14:42.987Z,39.96
2022-09-22T15:17:56.673Z,38.46
2022-09-22T15:20:34.597Z,39.78
2022-09-22T15:23:02.641Z,40.40
2022-09-22T15:25:29.800Z,41.94
2022-09-22T15:27:56.874Z,42.69
2022-09-22T15:30:25.632Z,41.83
2022-09-22T15:32:53.080Z,41.79
2022-09-22T15:35:20.961Z,41.31
2022-09-22T15:37:50.205Z,41.03
2022-09-22T15:40:21.802Z,40.11
2022-09-22T15:43:12.157Z,39.76
2022-09-22T15:45:38.437Z,40.40
2022-09-22T15:48:05.538Z,40.05
2022-09-22T15:50:32.593Z,41.03
2022-09-22T15:52:59.532Z,40.69
2022-09-22T15:55:26.480Z,42.46
2022-09-22T15:57:56.866Z,43.08
2022-09-22T16:00:27.698Z,43.21
2022-09-22T16:02:54.906Z,41.54
2022-09-22T16:05:22.858Z,42.85
2022-09-22T16:07:52.825Z,43.23
2022-09-22T16:10:24.018Z,43.87
2022-09-22T16:12:51.116Z,43.94
2022-09-22T16:15:18.326Z,44.07
2022-09-22T16:17:46.157Z,42.81
2022-09-22T16:20:15.902Z,42.48
2022-09-22T16:22:45.561Z,42.66
2022-09-22T16:25:12.866Z,42.62
2022-09-22T16:27:39.921Z,42.72
2022-09-22T16:30:07.703Z,43.26
2022-09-22T16:32:36.355Z,43.43
2022-09-22T16:35:04.010Z,44.03
2022-09-22T16:37:30.939Z,43.96
2022-09-22T16:39:57.926Z,44.49
2022-09-22T16:42:24.950Z,44.05
2022-09-22T16:44:51.969Z,43.76
2022-09-22T16:47:21.226Z,44.57
2022-09-22T16:49:51.539Z,44.26
2022-09-22T16:52:20.230Z,46.42
2022-09-22T16:54:47.186Z,46.63
2022-09-22T16:57:14.073Z,46.93
2022-09-22T16:59:41.017Z,46.92
2022-09-22T17:02:12.204Z,46.79
2022-09-22T17:04:39.193Z,47.58
2022-09-22T17:07:07.209Z,47.40
2022-09-22T17:09:34.208Z,48.20
2022-09-22T17:12:02.452Z,48.39
2022-09-22T17:14:30.602Z,48.27
2022-09-22T17:16:57.544Z,48.50
2022-09-22T17:19:26.849Z,48.72
2022-09-22T17:21:56.022Z,48.78
2022-09-22T17:24:24.939Z,48.92
2022-09-22T17:26:54.514Z,48.91
2022-09-22T17:29:27.137Z,49.19
2022-09-22T17:31:57.496Z,49.16
2022-09-22T17:34:26.219Z,48.78
2022-09-22T17:36:55.661Z,48.65
2022-09-22T17:39:24.283Z,48.77
2022-09-22T17:41:51.550Z,48.98
2022-09-22T17:44:21.568Z,48.22
2022-09-22T17:47:08.835Z,47.72
2022-09-22T17:49:55.123Z,48.21
2022-09-22T17:52:40.380Z,48.37
2022-09-22T17:55:11.509Z,48.76
2022-09-22T17:57:43.948Z,49.22
2022-09-22T18:00:13.694Z,49.29
2022-09-22T18:02:41.033Z,49.69
2022-09-22T18:05:13.177Z,49.92
2022-09-22T18:07:40.599Z,50.03
2022-09-22T18:10:10.255Z,50.54
2022-09-22T18:12:37.582Z,51.21
2022-09-22T18:15:05.633Z,51.15
2022-09-22T18:17:43.002Z,51.47
2022-09-22T18:20:11.601Z,52.07
2022-09-22T18:22:39.122Z,51.98
2022-09-22T18:25:08.499Z,52.55
2022-09-22T18:27:35.497Z,52.68
2022-09-22T18:30:05.124Z,52.72
2022-09-22T18:32:32.284Z,52.55
2022-09-22T18:34:59.244Z,52.71
2022-09-22T18:37:26.969Z,52.62
2022-09-22T18:39:54.776Z,52.04
2022-09-22T18:42:24.454Z,52.10
2022-09-22T18:44:52.316Z,51.74
2022-09-22T18:47:21.155Z,51.83
2022-09-22T18:49:50.254Z,51.44
2022-09-22T18:52:23.040Z,51.00
2022-09-22T18:54:53.264Z,50.63
2022-09-22T18:57:22.038Z,50.43
2022-09-22T18:59:51.103Z,50.50
2022-09-22T19:02:23.013Z,50.75
2022-09-22T19:04:51.931Z,50.86
2022-09-22T19:07:41.867Z,51.16
2022-09-22T19:10:11.988Z,51.22
2022-09-22T19:12:42.812Z,50.97
2022-09-22T19:15:16.888Z,51.00
2022-09-22T19:17:46.002Z,51.25
2022-09-22T19:20:19.074Z,51.12
2022-09-22T19:22:47.025Z,51.24
2022-09-22T19:25:15.079Z,51.06
2022-09-22T19:27:42.475Z,51.48
2022-09-22T19:30:11.555Z,51.43
2022-09-22T19:32:39.754Z,52.01
2022-09-22T19:35:08.957Z,52.03
2022-09-22T19:37:36.471Z,52.44
2022-09-22T19:40:05.374Z,52.37
2022-09-22T19:42:32.533Z,52.24
2022-09-22T19:45:00.595Z,52.14
2022-09-22T19:47:27.495Z,51.94
2022-09-22T19:49:55.119Z,52.10
2022-09-22T19:52:22.437Z,51.98
2022-09-22T19:54:49.485Z,52.13
2022-09-22T19:57:16.425Z,52.22
2022-09-22T19:59:43.331Z,52.44
2022-09-22T20:02:14.972Z,52.55
2022-09-22T20:04:42.083Z,52.33
2022-09-22T20:07:11.100Z,52.70
2022-09-22T20:09:38.679Z,53.09
2022-09-22T20:12:06.275Z,52.75
2022-09-22T20:14:33.686Z,53.11
2022-09-22T20:17:05.069Z,53.40
2022-09-22T20:19:34.547Z,53.78
2022-09-22T20:22:28.527Z,54.33
2022-09-22T20:24:58.365Z,54.32
2022-09-22T20:27:31.770Z,54.44
2022-09-22T20:30:00.109Z,54.26
2022-09-22T20:32:29.129Z,53.71
2022-09-22T20:34:56.252Z,53.86
2022-09-22T20:37:24.593Z,54.13
2022-09-22T20:39:52.247Z,54.47
2022-09-22T20:42:19.360Z,54.22
2022-09-22T20:44:47.056Z,54.72
2022-09-22T20:47:18.664Z,55.10
2022-09-22T20:49:51.292Z,54.40
2022-09-22T20:52:20.352Z,54.47
2022-09-22T20:54:48.170Z,54.64
2022-09-22T20:57:15.428Z,54.42
2022-09-22T20:59:45.871Z,54.24
2022-09-22T21:02:15.036Z,55.40
2022-09-22T21:04:42.532Z,55.10
2022-09-22T21:07:11.553Z,54.89
2022-09-22T21:09:57.182Z,55.10
2022-09-22T21:12:30.725Z,55.05
2022-09-22T21:14:58.879Z,55.24
2022-09-22T21:17:28.025Z,54.79
2022-09-22T21:19:59.102Z,54.78
2022-09-22T21:22:29.208Z,54.24
2022-09-22T21:24:56.508Z,54.24
2022-09-22T21:27:25.249Z,54.07
2022-09-22T21:29:53.846Z,54.39
2022-09-22T21:32:21.060Z,54.97
2022-09-22T21:34:48.033Z,55.66
2022-09-22T21:37:15.159Z,55.94
2022-09-22T21:39:42.064Z,55.52
2022-09-22T21:42:09.237Z,55.59
2022-09-22T21:44:36.167Z,55.72
2022-09-22T21:47:03.235Z,55.35
2022-09-22T21:49:30.187Z,55.55
2022-09-22T21:51:57.170Z,55.63
2022-09-22T21:54:24.095Z,55.44
2022-09-22T21:56:51.128Z,55.43
2022-09-22T21:59:18.177Z,55.50
2022-09-22T22:01:45.305Z,56.09
2022-09-22T22:04:15.190Z,56.23
2022-09-22T22:06:46.710Z,55.93
2022-09-22T22:09:15.444Z,56.30
2022-09-22T22:11:46.791Z,56.17
2022-09-22T22:14:13.983Z,55.90
2022-09-22T22:16:43.875Z,55.64
2022-09-22T22:19:17.801Z,55.81
2022-09-22T22:21:45.200Z,55.74
2022-09-22T22:24:26.120Z,55.52
2022-09-22T22:27:11.294Z,55.35
2022-09-22T22:29:41.158Z,55.35
2022-09-22T22:32:10.250Z,55.05
2022-09-22T22:34:37.830Z,54.98
2022-09-22T22:37:08.950Z,54.80
2022-09-22T22:39:36.080Z,54.96
2022-09-22T22:42:03.032Z,54.71
2022-09-22T22:44:29.936Z,54.69
2022-09-22T22:46:56.927Z,54.22
2022-09-22T22:49:23.850Z,54.49
2022-09-22T22:51:52.479Z,54.71
2022-09-22T22:54:19.409Z,54.59
2022-09-22T22:56:50.770Z,54.23
2022-09-22T22:59:18.539Z,53.80
2022-09-22T23:01:45.596Z,53.96
2022-09-22T23:04:13.022Z,53.86
2022-09-22T23:06:44.626Z,54.13
2022-09-22T23:09:15.768Z,54.23
2022-09-22T23:11:46.218Z,54.38
2022-09-22T23:14:16.034Z,54.41
2022-09-22T23:16:46.045Z,54.42
2022-09-22T23:19:18.075Z,54.75
2022-09-22T23:21:46.002Z,54.60
2022-09-22T23:24:16.608Z,54.65
2022-09-22T23:26:44.910Z,54.51
2022-09-22T23:29:12.271Z,54.74
2022-09-22T23:31:39.262Z,54.25
2022-09-22T23:34:06.173Z,53.92
2022-09-22T23:36:33.097Z,53.91
2022-09-22T23:39:05.026Z,53.67
2022-09-22T23:41:34.916Z,53.59
2022-09-22T23:44:03.304Z,52.79
2022-09-22T23:46:31.062Z,52.88
2022-09-22T23:49:00.477Z,53.56
2022-09-22T23:51:28.001Z,53.45
2022-09-22T23:53:55.580Z,53.61
2022-09-22T23:56:22.494Z,53.76
2022-09-22T23:58:50.889Z,53.75
